Time;durP1;ratioP1;P1;durP2;ratioP2;P2;SDS_P1;SDS_P2;PMS_P1;PMS_P2;Temp;Humidity;BMP_temperature;BMP_pressure;BME280_temperature;BME280_humidity;BME280_pressure;Samples;Min_cycle;Max_cycle;Signal;HPM_P1;HPM_P2
2023/06/15 00:01:18;;;;;;;;;;;;;;;18.23;57.09;99476.56;4497222;31;33745;-85
2023/06/15 00:03:48;;;;;;;;;;;;;;;18.07;57.78;99482.56;4491530;31;34296;-86
2023/06/15 00:06:17;;;;;;;;;;;;;;;17.97;58.19;99469.91;4490672;31;32648;-87
2023/06/15 00:08:45;;;;;;;;;;;;;;;18.01;58.05;99471.50;4486628;31;33859;-82
2023/06/15 00:11:14;;;;;;;;;;;;;;;18.07;57.93;99472.06;4482743;31;33432;-85
2023/06/15 00:13:43;;;;;;;;;;;;;;;17.98;58.12;99464.62;4480884;31;33878;-86
2023/06/15 00:16:14;;;;;;;;;;;;;;;18.01;58.24;99472.34;4475772;31;34498;-85
2023/06/15 00:18:43;;;;;;;;;;;;;;;17.88;58.37;99463.34;4480317;31;33491;-83
2023/06/15 00:21:13;;;;;;;;;;;;;;;18.00;58.02;99470.66;4482568;31;34681;-83
2023/06/15 00:23:42;;;;;;;;;;;;;;;17.98;57.87;99475.09;4496784;31;34302;-85
2023/06/15 00:26:11;;;;;;;;;;;;;;;18.06;57.58;99469.50;4485396;31;33456;-84
2023/06/15 00:28:40;;;;;;;;;;;;;;;17.98;57.87;99471.66;4477535;31;33416;-84
2023/06/15 00:31:10;;;;;;;;;;;;;;;18.06;57.77;99472.12;4486223;31;34671;-86
2023/06/15 00:33:43;;;;;;;;;;;;;;;17.99;57.89;99460.22;4486914;31;33871;-84
2023/06/15 00:36:20;;;;;;;;;;;;;;;17.98;57.93;99463.78;4476909;31;34018;-85
2023/06/15 00:38:49;;;;;;;;;;;;;;;17.86;58.27;99466.03;4480703;31;34128;-84
2023/06/15 00:41:21;;;;;;;;;;;;;;;17.98;57.96;99469.03;4487999;31;33542;-84
2023/06/15 00:43:49;;;;;;;;;;;;;;;17.91;58.17;99468.44;4475626;31;32533;-84
2023/06/15 00:46:19;;;;;;;;;;;;;;;17.94;58.09;99470.06;4496837;31;32170;-83
2023/06/15 00:48:47;;;;;;;;;;;;;;;17.77;58.78;99463.81;4486165;31;33669;-83
2023/06/15 00:51:16;;;;;;;;;;;;;;;17.80;58.75;99463.69;4478764;31;33551;-85
2023/06/15 00:53:46;;;;;;;;;;;;;;;17.81;58.62;99469.81;4488629;31;34304;-83
2023/06/15 00:56:17;;;;;;;;;;;;;;;17.72;59.06;99471.03;4491636;31;33850;-84
2023/06/15 00:58:45;;;;;;;;;;;;;;;17.86;58.54;99473.91;4481073;31;34618;-86
2023/06/15 01:01:20;;;;;;;;;;;;;;;17.74;58.76;99466.56;4482884;31;33334;-80
2023/06/15 01:04:07;;;;;;;;;;;;;;;17.94;58.26;99456.94;4476052;31;34148;-82
2023/06/15 01:06:41;;;;;;;;;;;;;;;17.74;58.95;99463.09;4487170;31;32331;-86
2023/06/15 01:09:14;;;;;;;;;;;;;;;17.73;58.87;99469.25;4478129;31;34537;-84
2023/06/15 01:11:42;;;;;;;;;;;;;;;17.78;58.83;99457.63;4487995;31;34686;-85
2023/06/15 01:14:11;;;;;;;;;;;;;;;17.74;58.96;99460.47;4480870;31;34027;-85
2023/06/15 01:16:42;;;;;;;;;;;;;;;17.55;59.23;99461.31;4489994;31;32776;-84
2023/06/15 01:19:13;;;;;;;;;;;;;;;17.58;59.37;99462.94;4492140;31;35805;-86
2023/06/15 01:21:42;;;;;;;;;;;;;;;17.55;59.41;99463.09;4497507;31;34047;-83
2023/06/15 01:24:18;;;;;;;;;;;;;;;17.67;59.13;99457.28;4489308;31;33738;-85
2023/06/15 01:26:49;;;;;;;;;;;;;;;17.63;59.14;99448.69;4479294;32;33231;-85
2023/06/15 01:29:19;;;;;;;;;;;;;;;17.64;59.31;99446.94;4478517;32;33544;-83
2023/06/15 01:31:49;;;;;;;;;;;;;;;17.33;60.18;99445.69;4484142;31;33353;-83
2023/06/15 01:34:18;;;;;;;;;;;;;;;17.34;60.36;99444.78;4498882;31;34076;-83
2023/06/15 01:36:46;;;;;;;;;;;;;;;17.18;61.02;99443.75;4493897;31;32670;-83
2023/06/15 01:39:15;;;;;;;;;;;;;;;17.13;60.91;99446.59;4493612;31;34179;-83
2023/06/15 01:41:48;;;;;;;;;;;;;;;17.39;60.10;99450.66;4485774;31;35298;-83
2023/06/15 01:44:17;;;;;;;;;;;;;;;17.37;60.29;99452.53;4489694;31;33272;-83
2023/06/15 01:46:46;;;;;;;;;;;;;;;17.09;61.06;99450.25;4487321;31;33249;-84
2023/06/15 01:49:18;;;;;;;;;;;;;;;17.47;59.84;99445.94;4470048;31;32816;-83
2023/06/15 01:52:04;;;;;;;;;;;;;;;17.41;60.08;99451.44;4480596;31;35111;-85
2023/06/15 01:54:33;;;;;;;;;;;;;;;17.21;60.88;99449.72;4494619;31;34795;-84
2023/06/15 01:57:03;;;;;;;;;;;;;;;17.30;60.40;99451.09;4498184;31;33094;-84
2023/06/15 01:59:32;;;;;;;;;;;;;;;17.21;60.67;99447.09;4493293;31;34005;-86
2023/06/15 02:02:00;;;;;;;;;;;;;;;17.14;60.80;99450.06;4493730;31;34173;-86
2023/06/15 02:04:32;;;;;;;;;;;;;;;17.16;60.74;99450.84;4486538;31;33425;-86
2023/06/15 02:07:02;;;;;;;;;;;;;;;17.23;60.50;99447.03;4485694;31;34405;-84
2023/06/15 02:09:32;;;;;;;;;;;;;;;17.10;60.77;99453.72;4496896;31;33852;-85
2023/06/15 02:12:12;;;;;;;;;;;;;;;17.11;60.97;99452.81;4493587;31;34118;-84
2023/06/15 02:15:23;;;;;;;;;;;;;;;17.13;60.67;99453.59;4477766;32;34154;-84
2023/06/15 02:18:00;;;;;;;;;;;;;;;16.91;61.33;99451.87;4490961;31;34103;-86
2023/06/15 02:20:33;;;;;;;;;;;;;;;17.01;61.08;99455.84;4492616;31;34468;-84
2023/06/15 02:23:05;;;;;;;;;;;;;;;16.92;61.35;99458.84;4497860;31;34060;-84
2023/06/15 02:25:41;;;;;;;;;;;;;;;16.68;62.25;99463.34;4498125;31;34220;-85
2023/06/15 02:28:11;;;;;;;;;;;;;;;16.57;62.77;99457.69;4493847;31;33968;-84
2023/06/15 02:30:41;;;;;;;;;;;;;;;16.82;61.66;99463.62;4493611;31;33958;-83
2023/06/15 02:33:10;;;;;;;;;;;;;;;16.82;61.93;99462.78;4493572;31;34456;-87
2023/06/15 02:35:38;;;;;;;;;;;;;;;16.91;61.53;99458.91;4498113;31;33896;-83
2023/06/15 02:38:07;;;;;;;;;;;;;;;16.87;61.62;99455.59;4492795;31;33413;-84
2023/06/15 02:40:36;;;;;;;;;;;;;;;16.71;62.05;99454.50;4486601;31;33571;-87
2023/06/15 02:43:05;;;;;;;;;;;;;;;16.76;62.23;99460.37;4479598;31;34710;-85
2023/06/15 02:45:36;;;;;;;;;;;;;;;16.89;61.74;99453.75;4484122;31;36251;-84
2023/06/15 02:48:06;;;;;;;;;;;;;;;16.89;61.87;99451.13;4482330;31;32615;-87
2023/06/15 02:50:35;;;;;;;;;;;;;;;17.03;61.49;99451.41;4470919;31;33462;-86
2023/06/15 02:53:04;;;;;;;;;;;;;;;16.85;62.11;99447.78;4486059;31;33891;-85
2023/06/15 02:55:33;;;;;;;;;;;;;;;16.59;63.15;99454.06;4477904;32;34464;-85
2023/06/15 02:58:02;;;;;;;;;;;;;;;16.71;62.68;99450.09;4486150;31;33334;-84
2023/06/15 03:00:32;;;;;;;;;;;;;;;16.64;62.96;99453.88;4479759;31;33320;-84
2023/06/15 03:03:03;;;;;;;;;;;;;;;16.80;62.24;99454.13;4476929;31;33876;-87
2023/06/15 03:05:32;;;;;;;;;;;;;;;16.54;63.17;99449.97;4487455;31;34505;-85
2023/06/15 03:08:02;;;;;;;;;;;;;;;16.36;64.23;99451.56;4481148;31;33270;-87
2023/06/15 03:10:37;;;;;;;;;;;;;;;16.78;62.22;99461.19;4491272;31;35196;-87
2023/06/15 03:13:06;;;;;;;;;;;;;;;16.80;61.84;99462.84;4478845;31;33933;-87
2023/06/15 03:15:35;;;;;;;;;;;;;;;16.70;62.19;99458.03;4481552;31;34642;-86
2023/06/15 03:18:07;;;;;;;;;;;;;;;16.83;61.54;99460.09;4479830;31;32909;-85
2023/06/15 03:20:37;;;;;;;;;;;;;;;16.80;61.50;99464.62;4488927;31;34469;-88
2023/06/15 03:23:06;;;;;;;;;;;;;;;16.94;61.04;99462.25;4480892;31;35057;-83
2023/06/15 03:25:37;;;;;;;;;;;;;;;16.87;61.13;99462.59;4483012;31;33838;-87
2023/06/15 03:28:06;;;;;;;;;;;;;;;17.04;60.86;99462.72;4486546;31;33835;-84
2023/06/15 03:30:36;;;;;;;;;;;;;;;16.98;60.86;99469.06;4486252;31;33897;-83
2023/06/15 03:33:07;;;;;;;;;;;;;;;17.04;60.72;99468.81;4487040;31;33038;-83
2023/06/15 03:35:35;;;;;;;;;;;;;;;17.09;60.38;99462.53;4478921;31;34774;-84
2023/06/15 03:38:05;;;;;;;;;;;;;;;17.08;60.59;99471.28;4477637;31;33419;-83
2023/06/15 03:40:37;;;;;;;;;;;;;;;17.10;60.25;99467.69;4478730;31;33902;-85
2023/06/15 03:43:05;;;;;;;;;;;;;;;17.13;60.10;99474.56;4485214;31;33773;-84
2023/06/15 03:45:35;;;;;;;;;;;;;;;17.18;59.48;99477.81;4477948;31;34771;-84
2023/06/15 03:48:04;;;;;;;;;;;;;;;17.26;59.23;99476.56;4488021;31;33112;-84
2023/06/15 03:50:35;;;;;;;;;;;;;;;17.24;59.39;99478.41;4488843;31;34706;-83
2023/06/15 03:53:08;;;;;;;;;;;;;;;17.28;59.36;99474.75;4480600;31;32015;-85
2023/06/15 03:55:39;;;;;;;;;;;;;;;17.33;59.14;99471.06;4492165;31;33980;-85
2023/06/15 03:58:09;;;;;;;;;;;;;;;17.39;58.92;99476.88;4480710;31;33395;-84
2023/06/15 04:00:40;;;;;;;;;;;;;;;17.46;58.54;99475.69;4486531;31;34462;-84
2023/06/15 04:03:09;;;;;;;;;;;;;;;17.51;58.42;99485.13;4479045;31;35508;-82
2023/06/15 04:05:40;;;;;;;;;;;;;;;17.69;58.03;99471.19;4486694;31;33476;-83
2023/06/15 04:08:09;;;;;;;;;;;;;;;17.87;57.34;99477.38;4485333;31;34265;-83
2023/06/15 04:10:37;;;;;;;;;;;;;;;18.12;56.57;99482.31;4488722;31;33612;-83
2023/06/15 04:13:06;;;;;;;;;;;;;;;18.06;57.33;99485.25;4479966;31;34211;-83
2023/06/15 04:15:36;;;;;;;;;;;;;;;18.64;55.42;99482.41;4480094;31;33777;-86
2023/06/15 04:18:05;;;;;;;;;;;;;;;19.37;53.19;99482.22;4483046;31;32874;-85
2023/06/15 04:20:36;;;;;;;;;;;;;;;20.11;50.12;99480.91;4480031;31;33517;-84
2023/06/15 04:23:06;;;;;;;;;;;;;;;20.88;48.16;99486.16;4478076;31;35238;-85
2023/06/15 04:25:35;;;;;;;;;;;;;;;21.42;46.81;99482.09;4481175;31;33531;-84
2023/06/15 04:28:06;;;;;;;;;;;;;;;21.80;45.70;99485.00;4491120;31;32917;-85
2023/06/15 04:30:36;;;;;;;;;;;;;;;22.24;44.12;99491.06;4487740;31;33351;-85
2023/06/15 04:33:06;;;;;;;;;;;;;;;22.11;44.96;99491.84;4483739;31;34827;-84
2023/06/15 04:35:35;;;;;;;;;;;;;;;22.19;44.54;99488.69;4492422;31;34020;-86
2023/06/15 04:38:04;;;;;;;;;;;;;;;22.04;44.85;99495.81;4456320;31;1107550;-85
2023/06/15 04:40:34;;;;;;;;;;;;;;;22.05;44.80;99494.00;4489697;31;34911;-84
2023/06/15 04:43:04;;;;;;;;;;;;;;;22.34;44.72;99498.28;4478745;31;33376;-85
2023/06/15 04:45:35;;;;;;;;;;;;;;;22.91;43.32;99497.19;4482964;31;34241;-84
2023/06/15 04:48:06;;;;;;;;;;;;;;;23.21;42.22;99498.72;4485103;31;33188;-85
2023/06/15 04:50:35;;;;;;;;;;;;;;;22.82;43.66;99497.81;4491786;31;33911;-84
2023/06/15 04:53:12;;;;;;;;;;;;;;;23.08;44.03;99500.53;4480570;31;33576;-86
2023/06/15 04:55:42;;;;;;;;;;;;;;;23.12;43.42;99505.53;4484447;31;34145;-84
2023/06/15 04:58:12;;;;;;;;;;;;;;;23.38;42.80;99509.00;4482093;31;33864;-87
2023/06/15 05:00:42;;;;;;;;;;;;;;;24.04;41.62;99503.53;4477179;31;34513;-85
2023/06/15 05:03:12;;;;;;;;;;;;;;;24.43;40.77;99505.09;4494929;31;34758;-84
2023/06/15 05:05:40;;;;;;;;;;;;;;;24.39;40.81;99502.78;4491307;31;34307;-85
2023/06/15 05:08:09;;;;;;;;;;;;;;;24.61;38.79;99507.38;4481697;31;33956;-84
2023/06/15 05:10:38;;;;;;;;;;;;;;;24.75;37.88;99503.69;4487306;31;33529;-84
2023/06/15 05:13:17;;;;;;;;;;;;;;;24.69;38.38;99507.63;4494552;31;33905;-85
2023/06/15 05:15:47;;;;;;;;;;;;;;;24.79;38.88;99511.31;4484791;31;35241;-84
2023/06/15 05:18:16;;;;;;;;;;;;;;;24.76;38.07;99511.53;4479867;31;33197;-87
2023/06/15 05:20:45;;;;;;;;;;;;;;;24.89;37.31;99517.62;4467314;31;34300;-86
2023/06/15 05:23:14;;;;;;;;;;;;;;;24.80;38.50;99528.06;4492245;31;33871;-85
2023/06/15 05:25:42;;;;;;;;;;;;;;;24.57;38.88;99529.78;4487535;31;33480;-85
2023/06/15 05:28:11;;;;;;;;;;;;;;;24.48;40.61;99524.19;4486136;31;31236;-87
2023/06/15 05:30:44;;;;;;;;;;;;;;;24.46;40.94;99528.75;4485400;31;34273;-86
2023/06/15 05:33:13;;;;;;;;;;;;;;;24.41;40.77;99535.34;4487325;31;33230;-84
2023/06/15 05:35:42;;;;;;;;;;;;;;;23.92;41.73;99530.91;4488367;31;34292;-87
2023/06/15 05:38:12;;;;;;;;;;;;;;;23.98;42.56;99535.78;4488491;31;35102;-84
2023/06/15 05:40:41;;;;;;;;;;;;;;;23.33;44.07;99539.41;4487554;31;32494;-87
2023/06/15 05:43:14;;;;;;;;;;;;;;;23.27;44.34;99540.69;4485069;31;33366;-86
2023/06/15 05:45:45;;;;;;;;;;;;;;;22.33;46.32;99545.97;4486204;31;33549;-86
2023/06/15 05:48:21;;;;;;;;;;;;;;;22.07;47.03;99553.72;4490474;31;33032;-86
2023/06/15 05:50:49;;;;;;;;;;;;;;;21.70;47.92;99556.03;4478865;31;33931;-84
2023/06/15 05:53:19;;;;;;;;;;;;;;;21.91;47.49;99550.34;4480405;31;34331;-87
2023/06/15 05:55:47;;;;;;;;;;;;;;;22.15;47.22;99547.94;4493362;31;34364;-86
2023/06/15 05:58:16;;;;;;;;;;;;;;;22.37;47.04;99550.97;4498630;31;34083;-86
2023/06/15 06:00:46;;;;;;;;;;;;;;;22.70;46.00;99546.22;4493653;31;34951;-86
2023/06/15 06:03:15;;;;;;;;;;;;;;;21.85;48.28;99556.88;4480139;31;33058;-87
2023/06/15 06:05:44;;;;;;;;;;;;;;;21.82;48.34;99549.13;4483315;31;33726;-84
2023/06/15 06:08:13;;;;;;;;;;;;;;;21.38;49.81;99559.72;4477265;31;33975;-86
2023/06/15 06:10:43;;;;;;;;;;;;;;;21.71;48.73;99559.50;4490858;31;34648;-85
2023/06/15 06:13:13;;;;;;;;;;;;;;;21.85;48.80;99558.66;4487220;31;34692;-83
2023/06/15 06:15:42;;;;;;;;;;;;;;;21.60;49.71;99554.91;4489297;31;33782;-84
2023/06/15 06:18:12;;;;;;;;;;;;;;;21.62;49.44;99558.25;4488076;31;32975;-87
2023/06/15 06:20:41;;;;;;;;;;;;;;;22.03;48.48;99562.78;4485329;31;34125;-82
2023/06/15 06:23:10;;;;;;;;;;;;;;;21.83;48.96;99557.91;4484207;31;35140;-85
2023/06/15 06:25:39;;;;;;;;;;;;;;;21.97;49.34;99557.91;4479714;31;34341;-84
2023/06/15 06:28:08;;;;;;;;;;;;;;;21.60;49.41;99557.53;4487098;31;33252;-83
2023/06/15 06:30:43;;;;;;;;;;;;;;;21.59;50.06;99557.63;4489171;31;33863;-83
2023/06/15 06:33:14;;;;;;;;;;;;;;;21.87;48.66;99556.78;4494696;31;33913;-84
2023/06/15 06:35:42;;;;;;;;;;;;;;;22.00;48.76;99570.06;4490589;31;33459;-86
2023/06/15 06:38:11;;;;;;;;;;;;;;;22.04;48.77;99558.37;4481750;31;32966;-83
2023/06/15 06:40:40;;;;;;;;;;;;;;;22.14;47.96;99559.47;4483592;31;34929;-84
2023/06/15 06:43:10;;;;;;;;;;;;;;;21.42;48.76;99564.75;4491914;31;33668;-84
2023/06/15 06:45:40;;;;;;;;;;;;;;;22.06;47.57;99562.62;4484763;31;33435;-84
2023/06/15 06:48:09;;;;;;;;;;;;;;;21.89;47.58;99557.50;4490271;31;33299;-83
2023/06/15 06:50:39;;;;;;;;;;;;;;;21.84;47.31;99567.50;4492220;31;34300;-83
2023/06/15 06:53:08;;;;;;;;;;;;;;;22.22;45.96;99559.03;4495363;31;34191;-85
2023/06/15 06:55:42;;;;;;;;;;;;;;;22.93;44.08;99563.22;4491786;31;34694;-85
2023/06/15 06:58:12;;;;;;;;;;;;;;;22.60;45.38;99561.00;4490081;31;34323;-86
2023/06/15 07:00:41;;;;;;;;;;;;;;;22.44;45.91;99563.78;4483930;31;33464;-83
2023/06/15 07:03:10;;;;;;;;;;;;;;;22.66;45.85;99557.94;4482886;31;33926;-84
2023/06/15 07:05:41;;;;;;;;;;;;;;;23.31;42.28;99567.78;4492940;31;33441;-83
2023/06/15 07:08:10;;;;;;;;;;;;;;;23.14;43.88;99564.44;4481432;31;32613;-84
2023/06/15 07:10:38;;;;;;;;;;;;;;;23.21;43.41;99551.66;4487807;31;33756;-84
2023/06/15 07:13:07;;;;;;;;;;;;;;;22.74;43.39;99555.66;4480386;31;34724;-84
2023/06/15 07:15:35;;;;;;;;;;;;;;;23.07;42.44;99555.22;4489521;31;33899;-83
2023/06/15 07:18:04;;;;;;;;;;;;;;;23.68;39.97;99552.84;4483250;31;35061;-84
2023/06/15 07:20:33;;;;;;;;;;;;;;;23.55;40.45;99555.50;4487611;31;34149;-84
2023/06/15 07:23:03;;;;;;;;;;;;;;;23.55;40.47;99560.78;4481529;31;34225;-84
2023/06/15 07:25:32;;;;;;;;;;;;;;;22.94;41.59;99554.34;4483598;31;34396;-84
2023/06/15 07:28:01;;;;;;;;;;;;;;;23.27;42.47;99556.56;4483955;31;33366;-83
2023/06/15 07:30:30;;;;;;;;;;;;;;;23.28;41.35;99555.59;4480087;31;34128;-85
2023/06/15 07:32:58;;;;;;;;;;;;;;;23.43;41.73;99546.59;4489510;31;34313;-86
2023/06/15 07:35:27;;;;;;;;;;;;;;;23.71;42.50;99551.78;4489230;31;34578;-84
2023/06/15 07:37:56;;;;;;;;;;;;;;;23.88;42.18;99543.53;4486585;31;33706;-85
2023/06/15 07:40:26;;;;;;;;;;;;;;;24.17;41.93;99546.75;4475587;31;34657;-86
2023/06/15 07:42:55;;;;;;;;;;;;;;;24.03;41.32;99550.38;4474761;31;34228;-84
2023/06/15 07:45:24;;;;;;;;;;;;;;;23.98;41.81;99541.09;4476990;31;34805;-83
2023/06/15 07:47:53;;;;;;;;;;;;;;;24.06;39.79;99546.66;4486425;31;33449;-85
2023/06/15 07:50:21;;;;;;;;;;;;;;;24.46;38.50;99541.19;4497557;31;33680;-85
2023/06/15 07:52:51;;;;;;;;;;;;;;;23.87;40.18;99535.69;4484248;31;34620;-84
2023/06/15 07:55:26;;;;;;;;;;;;;;;23.85;40.19;99534.00;4482022;31;33421;-85
2023/06/15 07:57:55;;;;;;;;;;;;;;;23.60;40.21;99534.00;4482755;31;32861;-85
2023/06/15 08:00:24;;;;;;;;;;;;;;;24.02;41.14;99542.56;4488756;31;33895;-84
2023/06/15 08:02:59;;;;;;;;;;;;;;;24.40;39.61;99534.47;4480861;31;34048;-84
2023/06/15 08:05:28;;;;;;;;;;;;;;;24.42;38.43;99534.38;4479368;31;33050;-85
2023/06/15 08:07:57;;;;;;;;;;;;;;;24.16;39.60;99534.47;4484530;31;33389;-86
2023/06/15 08:10:26;;;;;;;;;;;;;;;24.20;39.67;99533.28;4477032;32;33524;-83
2023/06/15 08:12:58;;;;;;;;;;;;;;;24.19;38.88;99534.25;4481427;32;33002;-85
2023/06/15 08:15:27;;;;;;;;;;;;;;;23.99;39.36;99537.47;4483062;31;33914;-84
2023/06/15 08:17:56;;;;;;;;;;;;;;;24.66;38.38;99540.53;4478224;32;33833;-86
2023/06/15 08:20:26;;;;;;;;;;;;;;;24.35;38.73;99538.44;4481869;31;34816;-85
2023/06/15 08:22:54;;;;;;;;;;;;;;;24.16;39.96;99528.31;4487553;31;34244;-85
2023/06/15 08:25:23;;;;;;;;;;;;;;;24.43;39.01;99528.13;4487352;31;34256;-87
2023/06/15 08:27:54;;;;;;;;;;;;;;;24.59;38.31;99528.69;4494525;31;32956;-83
2023/06/15 08:30:24;;;;;;;;;;;;;;;24.72;39.12;99533.09;4484521;31;34785;-85
2023/06/15 08:32:52;;;;;;;;;;;;;;;24.55;38.97;99532.56;4486200;31;34748;-85
2023/06/15 08:35:23;;;;;;;;;;;;;;;24.57;37.09;99530.59;4491236;31;34118;-84
2023/06/15 08:37:52;;;;;;;;;;;;;;;24.59;37.59;99531.34;4494414;31;33652;-83
2023/06/15 08:40:21;;;;;;;;;;;;;;;23.60;38.62;99528.69;4486993;31;33373;-85
2023/06/15 08:42:55;;;;;;;;;;;;;;;24.37;37.76;99536.50;4484677;31;36617;-85
2023/06/15 08:45:24;;;;;;;;;;;;;;;24.63;37.36;99543.44;4486058;31;35448;-83
2023/06/15 08:47:55;;;;;;;;;;;;;;;24.64;35.11;99533.66;4483683;31;33509;-85
2023/06/15 08:50:24;;;;;;;;;;;;;;;23.95;35.76;99536.84;4486713;31;33964;-83
2023/06/15 08:52:55;;;;;;;;;;;;;;;24.73;35.34;99535.63;4481609;31;34670;-84
2023/06/15 08:55:26;;;;;;;;;;;;;;;24.91;35.51;99526.31;4486871;31;33731;-85
2023/06/15 08:58:00;;;;;;;;;;;;;;;25.07;35.50;99527.78;4494810;31;32601;-85
2023/06/15 09:00:28;;;;;;;;;;;;;;;25.36;35.02;99525.59;4485953;31;33191;-85
2023/06/15 09:02:58;;;;;;;;;;;;;;;25.16;36.86;99513.00;4486712;31;33902;-84
2023/06/15 09:05:27;;;;;;;;;;;;;;;24.94;36.98;99522.56;4493423;31;34582;-84
2023/06/15 09:07:58;;;;;;;;;;;;;;;25.17;36.05;99525.28;4488518;31;32847;-86
2023/06/15 09:10:27;;;;;;;;;;;;;;;25.06;37.38;99529.59;4493947;31;33725;-84
2023/06/15 09:12:57;;;;;;;;;;;;;;;24.91;35.95;99525.44;4493922;31;34237;-84
2023/06/15 09:15:27;;;;;;;;;;;;;;;25.16;36.77;99524.44;4493787;31;33928;-84
2023/06/15 09:17:57;;;;;;;;;;;;;;;25.21;35.76;99522.31;4493976;31;33105;-84
2023/06/15 09:20:26;;;;;;;;;;;;;;;25.64;34.16;99520.81;4497819;31;34386;-86
2023/06/15 09:22:57;;;;;;;;;;;;;;;25.29;35.32;99529.69;4487920;31;33669;-85
2023/06/15 09:25:26;;;;;;;;;;;;;;;25.25;34.83;99520.25;4491828;31;34507;-83
2023/06/15 09:27:55;;;;;;;;;;;;;;;24.80;35.21;99509.50;4488015;31;33383;-86
2023/06/15 09:30:30;;;;;;;;;;;;;;;25.03;35.27;99513.06;4497854;31;34242;-86
2023/06/15 09:32:59;;;;;;;;;;;;;;;25.54;33.75;99510.88;4493025;31;34849;-83
2023/06/15 09:35:29;;;;;;;;;;;;;;;25.65;33.31;99510.03;4493635;31;33723;-84
2023/06/15 09:38:01;;;;;;;;;;;;;;;25.64;32.96;99510.19;4493600;31;33374;-83
2023/06/15 09:40:33;;;;;;;;;;;;;;;25.50;33.45;99516.56;4492500;31;33907;-82
2023/06/15 09:43:06;;;;;;;;;;;;;;;25.90;32.08;99505.47;4484249;31;34926;-86
2023/06/15 09:45:36;;;;;;;;;;;;;;;25.68;33.20;99514.25;4485874;31;33219;-85
2023/06/15 09:48:05;;;;;;;;;;;;;;;26.09;32.92;99499.50;4493407;31;34188;-85
2023/06/15 09:50:34;;;;;;;;;;;;;;;25.94;31.14;99507.75;4478200;32;33350;-84
2023/06/15 09:53:03;;;;;;;;;;;;;;;26.05;31.84;99495.44;4491191;31;34987;-84
2023/06/15 09:55:32;;;;;;;;;;;;;;;26.13;31.07;99498.31;4490760;31;34683;-84
2023/06/15 09:58:01;;;;;;;;;;;;;;;26.10;32.09;99491.44;4493464;31;33350;-85
2023/06/15 10:00:29;;;;;;;;;;;;;;;26.28;31.69;99489.06;4492936;31;33319;-84
2023/06/15 10:02:59;;;;;;;;;;;;;;;26.30;31.86;99497.78;4492692;31;33724;-85
2023/06/15 10:05:30;;;;;;;;;;;;;;;26.47;29.86;99484.91;4498048;31;33874;-84
2023/06/15 10:08:01;;;;;;;;;;;;;;;26.65;30.64;99498.53;4485293;31;33087;-83
2023/06/15 10:10:30;;;;;;;;;;;;;;;26.53;30.09;99495.94;4491772;31;33761;-84
2023/06/15 10:13:00;;;;;;;;;;;;;;;26.27;31.08;99494.53;4492673;31;33844;-85
2023/06/15 10:15:29;;;;;;;;;;;;;;;26.21;29.22;99487.88;4497500;31;33512;-84
2023/06/15 10:18:04;;;;;;;;;;;;;;;26.54;30.89;99478.13;4493889;31;33790;-83
2023/06/15 10:20:33;;;;;;;;;;;;;;;26.29;28.97;99476.59;4493211;31;34072;-84
2023/06/15 10:23:04;;;;;;;;;;;;;;;26.38;30.43;99481.19;4492822;31;33905;-84
2023/06/15 10:25:32;;;;;;;;;;;;;;;26.57;29.57;99485.84;4493312;31;34135;-84
2023/06/15 10:28:09;;;;;;;;;;;;;;;26.90;28.44;99481.34;4497930;31;33278;-86
2023/06/15 10:30:42;;;;;;;;;;;;;;;26.88;28.08;99486.81;4492881;31;34617;-87
2023/06/15 10:33:19;;;;;;;;;;;;;;;26.88;26.81;99481.47;4492195;31;34794;-86
2023/06/15 10:35:49;;;;;;;;;;;;;;;26.97;26.29;99488.69;4488121;31;35425;-85
2023/06/15 10:38:25;;;;;;;;;;;;;;;26.76;28.32;99486.00;4491983;31;33575;-83
2023/06/15 10:40:54;;;;;;;;;;;;;;;26.83;27.24;99488.16;4492748;31;33473;-87
2023/06/15 10:43:26;;;;;;;;;;;;;;;27.01;27.35;99484.81;4492710;31;33889;-84
2023/06/15 10:45:55;;;;;;;;;;;;;;;26.97;26.11;99479.88;4493601;31;34777;-84
2023/06/15 10:48:26;;;;;;;;;;;;;;;27.37;26.52;99474.63;4491238;31;33242;-85
2023/06/15 10:51:02;;;;;;;;;;;;;;;27.48;27.66;99480.88;4490337;31;34624;-82
2023/06/15 10:53:38;;;;;;;;;;;;;;;27.40;26.77;99474.41;4482514;31;34728;-84
2023/06/15 10:56:11;;;;;;;;;;;;;;;27.39;25.83;99466.53;4484470;31;34019;-85
2023/06/15 10:58:52;;;;;;;;;;;;;;;27.69;27.46;99462.13;4481009;31;32885;-83
2023/06/15 11:01:21;;;;;;;;;;;;;;;27.62;25.37;99462.69;4478186;31;34394;-85
2023/06/15 11:03:53;;;;;;;;;;;;;;;26.54;26.37;99463.00;4487184;31;34456;-85
2023/06/15 11:06:30;;;;;;;;;;;;;;;27.49;27.43;99467.41;4487159;31;33850;-83
2023/06/15 11:09:01;;;;;;;;;;;;;;;27.62;26.59;99469.84;4486836;31;33400;-83
2023/06/15 11:11:31;;;;;;;;;;;;;;;27.47;26.58;99466.69;4487881;31;34212;-82
2023/06/15 11:14:02;;;;;;;;;;;;;;;26.81;27.76;99467.00;4479677;31;34338;-82
2023/06/15 11:16:32;;;;;;;;;;;;;;;27.12;27.43;99472.38;4488577;31;34785;-82
2023/06/15 11:19:25;;;;;;;;;;;;;;;27.10;26.84;99453.88;4486021;31;33438;-83
2023/06/15 11:22:01;;;;;;;;;;;;;;;27.81;26.54;99466.38;4478824;31;34529;-83
2023/06/15 11:24:36;;;;;;;;;;;;;;;27.83;25.41;99461.78;4477665;31;33968;-82
2023/06/15 11:27:05;;;;;;;;;;;;;;;27.79;25.53;99474.53;4482638;31;34121;-82
2023/06/15 11:29:37;;;;;;;;;;;;;;;27.52;24.76;99469.81;4495277;31;33515;-81
2023/06/15 11:32:06;;;;;;;;;;;;;;;27.80;26.78;99462.88;4491535;31;34638;-85
2023/06/15 11:34:36;;;;;;;;;;;;;;;28.30;23.86;99457.53;4486728;31;33195;-84
2023/06/15 11:37:12;;;;;;;;;;;;;;;28.70;25.17;99459.22;4488469;31;34794;-85
2023/06/15 11:39:43;;;;;;;;;;;;;;;28.72;24.20;99467.09;4491077;31;33116;-83
2023/06/15 11:42:11;;;;;;;;;;;;;;;28.65;23.51;99456.16;4493911;31;34201;-81
2023/06/15 11:44:41;;;;;;;;;;;;;;;28.61;22.99;99459.25;4480240;31;34223;-83
2023/06/15 11:47:11;;;;;;;;;;;;;;;28.40;24.32;99468.22;4482658;31;32918;-83
2023/06/15 11:49:40;;;;;;;;;;;;;;;28.67;23.42;99456.00;4482948;31;33654;-82
2023/06/15 11:52:13;;;;;;;;;;;;;;;28.84;22.98;99452.63;4489361;31;33490;-82
2023/06/15 11:54:42;;;;;;;;;;;;;;;29.26;21.87;99452.28;4492543;31;33908;-84
2023/06/15 11:57:22;;;;;;;;;;;;;;;29.47;21.47;99451.19;4491174;31;33977;-83
2023/06/15 11:59:51;;;;;;;;;;;;;;;29.34;21.27;99451.53;4488141;31;33383;-82
2023/06/15 12:02:20;;;;;;;;;;;;;;;29.45;21.05;99451.34;4486533;31;34190;-83
2023/06/15 12:04:50;;;;;;;;;;;;;;;28.83;20.06;99436.75;4496578;31;33984;-82
2023/06/15 12:07:21;;;;;;;;;;;;;;;29.08;20.66;99446.00;4487750;31;32909;-82
2023/06/15 12:09:53;;;;;;;;;;;;;;;29.07;20.14;99433.62;4482962;31;32756;-82
2023/06/15 12:12:28;;;;;;;;;;;;;;;29.03;20.69;99432.22;4484026;31;34222;-84
2023/06/15 12:14:59;;;;;;;;;;;;;;;29.39;19.93;99438.59;4482948;31;34194;-82
2023/06/15 12:17:28;;;;;;;;;;;;;;;28.91;19.23;99431.53;4490278;31;33950;-82
2023/06/15 12:20:00;;;;;;;;;;;;;;;28.02;19.47;99419.19;4486914;31;33239;-81
2023/06/15 12:22:34;;;;;;;;;;;;;;;29.14;19.15;99426.72;4486359;31;34868;-82
2023/06/15 12:25:06;;;;;;;;;;;;;;;29.80;19.55;99414.22;4484413;31;34417;-83
2023/06/15 12:27:49;;;;;;;;;;;;;;;29.95;18.84;99412.69;4483055;31;34034;-82
2023/06/15 12:30:27;;;;;;;;;;;;;;;29.52;18.84;99416.84;4486315;31;33708;-82
2023/06/15 12:32:56;;;;;;;;;;;;;;;29.54;17.68;99425.56;4482118;31;35091;-81
2023/06/15 12:35:26;;;;;;;;;;;;;;;29.72;18.06;99410.44;4485137;31;34662;-81
2023/06/15 12:37:57;;;;;;;;;;;;;;;29.55;18.55;99408.53;4483369;31;34382;-84
2023/06/15 12:40:28;;;;;;;;;;;;;;;29.68;18.94;99400.22;4485545;31;33613;-82
2023/06/15 12:42:57;;;;;;;;;;;;;;;29.38;18.64;99412.00;4493088;31;34101;-82
2023/06/15 12:45:27;;;;;;;;;;;;;;;29.23;18.92;99406.28;4484267;31;34793;-80
2023/06/15 12:47:57;;;;;;;;;;;;;;;29.18;20.76;99409.41;4466484;31;33910;-82
2023/06/15 12:50:26;;;;;;;;;;;;;;;28.84;19.08;99403.72;4487212;31;32786;-81
2023/06/15 12:53:02;;;;;;;;;;;;;;;29.12;21.43;99407.34;4489768;31;33664;-80
2023/06/15 12:55:31;;;;;;;;;;;;;;;29.00;20.47;99400.47;4482499;31;33627;-81
2023/06/15 12:58:03;;;;;;;;;;;;;;;28.96;21.42;99399.06;4486277;31;34004;-82
2023/06/15 13:00:31;;;;;;;;;;;;;;;29.16;21.43;99392.69;4486949;31;33492;-81
2023/06/15 13:03:05;;;;;;;;;;;;;;;29.70;20.59;99392.88;4483313;31;34240;-80
2023/06/15 13:05:35;;;;;;;;;;;;;;;29.46;20.28;99393.41;4491225;31;34333;-81